createdAt,value
2022-11-14T00:02:28.668Z,12.20
2022-11-14T00:07:51.129Z,12.10
2022-11-14T00:13:14.203Z,12.10
2022-11-14T00:18:36.313Z,12.10
2022-11-14T00:23:58.446Z,12.00
2022-11-14T00:29:20.646Z,12.00
2022-11-14T00:34:42.822Z,11.90
2022-11-14T00:40:05.467Z,11.90
2022-11-14T00:45:27.614Z,11.80
2022-11-14T00:50:50.006Z,11.80
2022-11-14T00:56:12.195Z,11.70
2022-11-14T01:01:34.511Z,11.70
2022-11-14T01:06:56.756Z,11.60
2022-11-14T01:12:19.153Z,11.50
2022-11-14T01:17:41.415Z,11.50
2022-11-14T01:23:03.532Z,11.40
2022-11-14T01:28:25.654Z,11.30
2022-11-14T01:33:50.277Z,11.30
2022-11-14T01:39:12.547Z,11.20
2022-11-14T01:44:52.647Z,11.00
2022-11-14T01:50:15.099Z,10.90
2022-11-14T01:55:37.309Z,10.90
2022-11-14T02:01:00.169Z,10.90
2022-11-14T02:06:25.994Z,10.90
2022-11-14T02:11:48.972Z,10.90
2022-11-14T02:17:28.939Z,10.80
2022-11-14T02:22:52.302Z,10.80
2022-11-14T02:28:14.426Z,10.80
2022-11-14T02:33:36.565Z,10.90
2022-11-14T02:38:58.706Z,10.80
2022-11-14T02:44:20.894Z,10.80
2022-11-14T02:49:43.053Z,10.70
2022-11-14T02:55:06.115Z,10.60
2022-11-14T03:00:28.293Z,10.60
2022-11-14T03:05:54.404Z,10.60
2022-11-14T03:11:16.584Z,10.50
2022-11-14T03:16:38.804Z,10.50
2022-11-14T03:22:00.991Z,10.30
2022-11-14T03:27:23.144Z,10.40
2022-11-14T03:32:45.262Z,10.40
2022-11-14T03:38:07.378Z,10.40
2022-11-14T03:43:33.146Z,10.40
2022-11-14T03:48:55.359Z,10.40
2022-11-14T03:54:17.584Z,10.40
2022-11-14T03:59:39.802Z,10.40
2022-11-14T04:05:02.295Z,10.40
2022-11-14T04:10:24.429Z,10.30
2022-11-14T04:15:46.811Z,10.30
2022-11-14T04:21:08.975Z,10.30
2022-11-14T04:26:31.067Z,10.30
2022-11-14T04:31:53.201Z,10.30
2022-11-14T04:37:15.332Z,10.20
2022-11-14T04:42:37.425Z,10.10
2022-11-14T04:47:59.565Z,10.10
2022-11-14T04:53:21.691Z,10.10
2022-11-14T04:58:43.839Z,10.10
2022-11-14T05:04:05.983Z,10.10
2022-11-14T05:09:28.173Z,10.20
2022-11-14T05:14:51.297Z,10.20
2022-11-14T05:20:13.693Z,10.20
2022-11-14T05:25:35.870Z,10.30
2022-11-14T05:31:03.695Z,10.20
2022-11-14T05:36:25.799Z,10.30
2022-11-14T05:41:48.113Z,10.20
2022-11-14T05:47:10.212Z,10.30
2022-11-14T05:52:32.350Z,10.40
2022-11-14T05:57:57.695Z,10.50
2022-11-14T06:03:20.620Z,10.60
2022-11-14T06:08:43.058Z,10.60
2022-11-14T06:14:10.475Z,10.70
2022-11-14T06:19:33.159Z,10.60
2022-11-14T06:24:55.350Z,10.50
2022-11-14T06:30:17.572Z,10.30
2022-11-14T06:35:40.084Z,10.20
2022-11-14T06:46:16.975Z,10.40
2022-11-14T06:51:39.136Z,10.50
2022-11-14T06:57:01.264Z,10.60
2022-11-14T07:02:23.382Z,10.80
2022-11-14T07:07:45.580Z,11.20
2022-11-14T07:13:09.708Z,11.90
2022-11-14T07:18:33.181Z,12.50
2022-11-14T07:23:56.681Z,13.80
2022-11-14T07:29:18.845Z,14.40
2022-11-14T07:34:40.933Z,15.10
2022-11-14T07:40:03.551Z,16.00
2022-11-14T07:45:26.323Z,16.80
2022-11-14T07:50:48.673Z,16.80
2022-11-14T07:56:11.697Z,18.50
2022-11-14T08:01:34.023Z,19.90
2022-11-14T08:06:56.233Z,20.70
2022-11-14T08:12:18.470Z,20.50
2022-11-14T08:17:40.798Z,20.70
2022-11-14T08:23:05.141Z,20.20
2022-11-14T08:28:27.978Z,19.30
2022-11-14T08:33:52.486Z,18.60
2022-11-14T08:39:14.561Z,17.90
2022-11-14T08:44:36.702Z,17.20
2022-11-14T08:49:58.831Z,16.70
2022-11-14T08:55:21.135Z,16.40
2022-11-14T09:00:43.245Z,16.10
2022-11-14T09:06:05.534Z,16.00
2022-11-14T09:11:27.654Z,15.80
2022-11-14T09:16:49.795Z,15.50
2022-11-14T09:22:12.766Z,15.30
2022-11-14T09:27:34.870Z,15.10
2022-11-14T09:33:02.144Z,14.80
2022-11-14T09:38:26.688Z,14.60
2022-11-14T09:44:28.583Z,14.50
2022-11-14T09:49:53.951Z,14.20
2022-11-14T09:55:21.980Z,14.20
2022-11-14T10:00:58.669Z,14.00
2022-11-14T10:17:39.375Z,13.80
2022-11-14T10:23:16.418Z,14.00
2022-11-14T10:39:51.728Z,14.10
2022-11-14T10:50:42.367Z,14.10
2022-11-14T10:56:05.509Z,13.90
2022-11-14T11:28:22.216Z,13.40
2022-11-14T11:33:44.532Z,13.30
2022-11-14T11:39:10.298Z,13.10
2022-11-14T11:44:38.484Z,13.10
2022-11-14T11:50:02.297Z,13.00
2022-11-14T11:55:32.135Z,13.00
2022-11-14T12:00:55.752Z,13.10
2022-11-14T12:06:29.869Z,13.10
2022-11-14T12:11:55.815Z,12.90
2022-11-14T12:33:31.372Z,12.70
2022-11-14T12:38:55.023Z,12.70
2022-11-14T12:44:31.016Z,12.70
2022-11-14T12:55:25.652Z,12.80
2022-11-14T13:06:09.644Z,12.70
2022-11-14T13:17:01.369Z,12.60
2022-11-14T13:22:44.972Z,12.70
2022-11-14T13:28:47.976Z,12.60
2022-11-14T13:34:39.066Z,12.60
2022-11-14T13:51:36.203Z,12.40
2022-11-14T14:07:53.545Z,12.40
2022-11-14T14:13:43.666Z,12.10
2022-11-14T14:34:41.929Z,12.10
2022-11-14T14:40:08.783Z,11.90
2022-11-14T14:45:46.187Z,11.80
2022-11-14T14:51:14.422Z,11.80
2022-11-14T14:56:36.536Z,11.90
2022-11-14T15:01:59.234Z,11.90
2022-11-14T15:07:24.898Z,11.90
2022-11-14T15:12:48.098Z,11.90
2022-11-14T15:18:24.012Z,11.70
2022-11-14T15:23:46.802Z,11.70
2022-11-14T15:29:21.035Z,11.80
2022-11-14T15:34:43.232Z,11.70
2022-11-14T15:40:23.481Z,11.70
2022-11-14T15:45:45.709Z,11.60
2022-11-14T15:51:07.857Z,11.60
2022-11-14T15:56:30.566Z,11.60
2022-11-14T16:01:57.787Z,11.50
2022-11-14T16:07:21.071Z,11.40
2022-11-14T16:12:45.768Z,11.20
2022-11-14T16:18:12.425Z,11.20
2022-11-14T16:23:34.570Z,11.30
2022-11-14T16:28:57.192Z,11.30
2022-11-14T16:34:22.245Z,11.30
2022-11-14T16:39:44.388Z,11.30
2022-11-14T16:45:07.240Z,11.20
2022-11-14T16:50:29.617Z,11.20
2022-11-14T16:55:51.746Z,11.20
2022-11-14T17:01:20.974Z,11.20
2022-11-14T17:06:43.744Z,11.00
2022-11-14T17:12:08.891Z,11.00
2022-11-14T17:17:31.503Z,10.90
2022-11-14T17:22:53.685Z,10.90
2022-11-14T17:28:15.846Z,10.90
2022-11-14T17:33:38.557Z,10.90
2022-11-14T17:39:00.941Z,10.90
2022-11-14T17:44:23.107Z,10.90
2022-11-14T17:49:45.315Z,10.80
2022-11-14T17:55:07.727Z,10.80
2022-11-14T18:00:29.864Z,10.70
2022-11-14T18:05:51.996Z,10.70
2022-11-14T18:11:17.099Z,10.60
2022-11-14T18:17:10.347Z,10.50
2022-11-14T18:22:21.770Z,10.60
2022-11-14T18:27:44.168Z,10.50
2022-11-14T18:33:06.296Z,10.60
2022-11-14T18:38:33.299Z,10.60
2022-11-14T18:43:56.126Z,10.50
2022-11-14T18:49:18.670Z,10.40
2022-11-14T18:54:41.140Z,10.40
2022-11-14T19:00:05.265Z,10.50
2022-11-14T19:05:27.433Z,10.50
2022-11-14T19:10:49.771Z,10.40
2022-11-14T19:16:11.955Z,10.50
2022-11-14T19:21:35.267Z,10.40
2022-11-14T19:26:57.365Z,10.50
2022-11-14T19:32:19.592Z,10.50
2022-11-14T19:37:41.919Z,10.60
2022-11-14T19:43:07.281Z,10.60
2022-11-14T19:48:30.396Z,10.60
2022-11-14T19:53:53.594Z,10.70
2022-11-14T19:59:19.031Z,10.80
2022-11-14T20:04:46.926Z,10.80
2022-11-14T20:10:09.739Z,10.90
2022-11-14T20:15:32.191Z,11.00
2022-11-14T20:20:57.975Z,11.00
2022-11-14T20:26:20.485Z,11.00
2022-11-14T20:31:42.646Z,11.00
2022-11-14T20:37:11.028Z,11.00
2022-11-14T20:42:34.042Z,11.00
2022-11-14T20:47:56.242Z,10.90
2022-11-14T20:53:19.303Z,11.00
2022-11-14T20:58:45.463Z,11.00
2022-11-14T21:04:07.966Z,11.00
2022-11-14T21:09:30.189Z,11.10
2022-11-14T21:14:52.350Z,11.00
2022-11-14T21:20:14.466Z,11.00
2022-11-14T21:25:36.629Z,11.00
2022-11-14T21:31:00.890Z,11.00
2022-11-14T21:36:43.909Z,11.10
2022-11-14T21:42:05.572Z,11.00
2022-11-14T21:47:27.726Z,11.00
2022-11-14T21:52:49.880Z,11.00
2022-11-14T21:58:12.974Z,10.90
2022-11-14T22:04:01.771Z,10.90
2022-11-14T22:09:28.391Z,10.90
2022-11-14T22:14:51.934Z,11.00
2022-11-14T22:20:14.234Z,11.00
2022-11-14T22:25:36.373Z,10.90
2022-11-14T22:36:16.552Z,10.70
2022-11-14T22:41:38.781Z,10.70
2022-11-14T22:47:00.925Z,10.80
2022-11-14T22:52:23.030Z,10.90
2022-11-14T22:57:45.172Z,10.80
2022-11-14T23:03:07.586Z,10.90
2022-11-14T23:08:29.790Z,10.80
2022-11-14T23:13:53.855Z,10.90
2022-11-14T23:19:16.082Z,10.80
2022-11-14T23:24:38.162Z,10.80
2022-11-14T23:30:00.279Z,10.80
2022-11-14T23:35:22.420Z,10.70
2022-11-14T23:40:44.892Z,10.80
2022-11-14T23:46:07.097Z,10.70
2022-11-14T23:51:29.942Z,10.70
2022-11-14T23:56:52.013Z,10.70
